sensor_id;sensor_type;location;lat;lon;timestamp;P1;durP1;ratioP1;P2;durP2;ratioP2
17662;SDS011;8950;56.892;15.090;2023-06-14T00:02:14;3.28;;;2.83;;
17662;SDS011;8950;56.892;15.090;2023-06-14T00:04:40;3.08;;;2.80;;
17662;SDS011;8950;56.892;15.090;2023-06-14T00:07:08;4.28;;;3.30;;
17662;SDS011;8950;56.892;15.090;2023-06-14T00:09:34;3.35;;;3.05;;
17662;SDS011;8950;56.892;15.090;2023-06-14T00:12:01;3.63;;;2.90;;
17662;SDS011;8950;56.892;15.090;2023-06-14T00:14:27;4.45;;;2.65;;
17662;SDS011;8950;56.892;15.090;2023-06-14T00:16:54;4.68;;;2.88;;
17662;SDS011;8950;56.892;15.090;2023-06-14T00:19:25;2.70;;;2.35;;
17662;SDS011;8950;56.892;15.090;2023-06-14T00:21:51;3.72;;;2.83;;
17662;SDS011;8950;56.892;15.090;2023-06-14T00:24:18;2.85;;;2.58;;
17662;SDS011;8950;56.892;15.090;2023-06-14T00:26:44;2.90;;;2.70;;
17662;SDS011;8950;56.892;15.090;2023-06-14T00:29:11;3.08;;;2.80;;
17662;SDS011;8950;56.892;15.090;2023-06-14T00:31:37;4.78;;;2.70;;
17662;SDS011;8950;56.892;15.090;2023-06-14T00:34:04;4.60;;;2.63;;
17662;SDS011;8950;56.892;15.090;2023-06-14T00:36:31;3.10;;;2.78;;
17662;SDS011;8950;56.892;15.090;2023-06-14T00:38:58;3.15;;;2.70;;
17662;SDS011;8950;56.892;15.090;2023-06-14T00:41:24;2.90;;;2.58;;
17662;SDS011;8950;56.892;15.090;2023-06-14T00:43:52;4.05;;;2.90;;
17662;SDS011;8950;56.892;15.090;2023-06-14T00:46:20;8.60;;;3.10;;
17662;SDS011;8950;56.892;15.090;2023-06-14T00:48:47;3.80;;;2.95;;
17662;SDS011;8950;56.892;15.090;2023-06-14T00:51:14;4.45;;;2.50;;
17662;SDS011;8950;56.892;15.090;2023-06-14T00:53:42;3.40;;;2.60;;
17662;SDS011;8950;56.892;15.090;2023-06-14T00:56:11;3.17;;;2.88;;
17662;SDS011;8950;56.892;15.090;2023-06-14T00:58:38;4.38;;;3.25;;
17662;SDS011;8950;56.892;15.090;2023-06-14T01:01:05;3.65;;;2.88;;
17662;SDS011;8950;56.892;15.090;2023-06-14T01:03:32;3.30;;;2.90;;
17662;SDS011;8950;56.892;15.090;2023-06-14T01:05:59;3.78;;;3.03;;
17662;SDS011;8950;56.892;15.090;2023-06-14T01:08:31;3.08;;;2.70;;
17662;SDS011;8950;56.892;15.090;2023-06-14T01:11:05;3.70;;;2.80;;
17662;SDS011;8950;56.892;15.090;2023-06-14T01:13:34;3.35;;;3.05;;
17662;SDS011;8950;56.892;15.090;2023-06-14T01:16:01;3.83;;;2.70;;
17662;SDS011;8950;56.892;15.090;2023-06-14T01:18:28;6.70;;;2.88;;
17662;SDS011;8950;56.892;15.090;2023-06-14T01:20:55;3.42;;;3.13;;
17662;SDS011;8950;56.892;15.090;2023-06-14T01:23:23;3.10;;;2.78;;
17662;SDS011;8950;56.892;15.090;2023-06-14T01:25:50;3.35;;;3.03;;
17662;SDS011;8950;56.892;15.090;2023-06-14T01:28:18;4.22;;;2.97;;
17662;SDS011;8950;56.892;15.090;2023-06-14T01:30:46;2.97;;;2.67;;
17662;SDS011;8950;56.892;15.090;2023-06-14T01:33:13;4.55;;;2.88;;
17662;SDS011;8950;56.892;15.090;2023-06-14T01:35:40;3.13;;;2.60;;
17662;SDS011;8950;56.892;15.090;2023-06-14T01:38:07;3.05;;;2.80;;
17662;SDS011;8950;56.892;15.090;2023-06-14T01:40:35;3.35;;;2.97;;
17662;SDS011;8950;56.892;15.090;2023-06-14T01:43:02;3.60;;;3.30;;
17662;SDS011;8950;56.892;15.090;2023-06-14T01:45:29;2.70;;;2.50;;
17662;SDS011;8950;56.892;15.090;2023-06-14T01:47:56;2.95;;;2.63;;
17662;SDS011;8950;56.892;15.090;2023-06-14T01:50:23;4.40;;;3.30;;
17662;SDS011;8950;56.892;15.090;2023-06-14T01:52:49;3.63;;;2.88;;
17662;SDS011;8950;56.892;15.090;2023-06-14T01:55:16;3.78;;;3.03;;
17662;SDS011;8950;56.892;15.090;2023-06-14T01:57:44;4.18;;;2.63;;
17662;SDS011;8950;56.892;15.090;2023-06-14T02:00:11;4.88;;;3.20;;
17662;SDS011;8950;56.892;15.090;2023-06-14T02:02:38;3.15;;;2.85;;
17662;SDS011;8950;56.892;15.090;2023-06-14T02:05:05;2.83;;;2.63;;
17662;SDS011;8950;56.892;15.090;2023-06-14T02:07:31;6.88;;;3.28;;
17662;SDS011;8950;56.892;15.090;2023-06-14T02:09:58;3.67;;;2.90;;
17662;SDS011;8950;56.892;15.090;2023-06-14T02:12:24;6.03;;;3.10;;
17662;SDS011;8950;56.892;15.090;2023-06-14T02:14:52;5.78;;;3.00;;
17662;SDS011;8950;56.892;15.090;2023-06-14T02:17:19;3.97;;;2.90;;
17662;SDS011;8950;56.892;15.090;2023-06-14T02:19:45;4.68;;;3.33;;
17662;SDS011;8950;56.892;15.090;2023-06-14T02:22:12;3.33;;;3.03;;
17662;SDS011;8950;56.892;15.090;2023-06-14T02:24:40;2.72;;;2.53;;
17662;SDS011;8950;56.892;15.090;2023-06-14T02:27:07;3.45;;;3.15;;
17662;SDS011;8950;56.892;15.090;2023-06-14T02:29:33;6.32;;;2.67;;
17662;SDS011;8950;56.892;15.090;2023-06-14T02:32:01;2.88;;;2.60;;
17662;SDS011;8950;56.892;15.090;2023-06-14T02:34:27;3.33;;;2.83;;
17662;SDS011;8950;56.892;15.090;2023-06-14T02:36:54;3.78;;;3.00;;
17662;SDS011;8950;56.892;15.090;2023-06-14T02:39:20;4.18;;;2.80;;
17662;SDS011;8950;56.892;15.090;2023-06-14T02:41:48;4.10;;;2.95;;
17662;SDS011;8950;56.892;15.090;2023-06-14T02:44:14;3.10;;;2.80;;
17662;SDS011;8950;56.892;15.090;2023-06-14T02:46:42;3.85;;;2.72;;
17662;SDS011;8950;56.892;15.090;2023-06-14T02:49:10;33.60;;;6.63;;
17662;SDS011;8950;56.892;15.090;2023-06-14T02:51:36;45.40;;;6.72;;
17662;SDS011;8950;56.892;15.090;2023-06-14T02:54:03;32.40;;;7.32;;
17662;SDS011;8950;56.892;15.090;2023-06-14T02:56:29;27.92;;;5.90;;
17662;SDS011;8950;56.892;15.090;2023-06-14T02:58:55;14.18;;;4.15;;
17662;SDS011;8950;56.892;15.090;2023-06-14T03:01:22;10.38;;;3.70;;
17662;SDS011;8950;56.892;15.090;2023-06-14T03:03:48;9.07;;;3.53;;
17662;SDS011;8950;56.892;15.090;2023-06-14T03:06:16;17.15;;;4.43;;
17662;SDS011;8950;56.892;15.090;2023-06-14T03:08:42;14.93;;;4.18;;
17662;SDS011;8950;56.892;15.090;2023-06-14T03:11:09;9.75;;;3.50;;
17662;SDS011;8950;56.892;15.090;2023-06-14T03:13:35;5.53;;;2.92;;
17662;SDS011;8950;56.892;15.090;2023-06-14T03:16:06;4.22;;;2.78;;
17662;SDS011;8950;56.892;15.090;2023-06-14T03:18:33;4.53;;;3.13;;
17662;SDS011;8950;56.892;15.090;2023-06-14T03:21:00;6.25;;;3.13;;
17662;SDS011;8950;56.892;15.090;2023-06-14T03:23:28;4.10;;;2.90;;
17662;SDS011;8950;56.892;15.090;2023-06-14T03:25:55;3.20;;;2.67;;
17662;SDS011;8950;56.892;15.090;2023-06-14T03:28:21;3.38;;;2.70;;
17662;SDS011;8950;56.892;15.090;2023-06-14T03:30:47;3.10;;;2.80;;
17662;SDS011;8950;56.892;15.090;2023-06-14T03:33:14;3.70;;;3.00;;
17662;SDS011;8950;56.892;15.090;2023-06-14T03:35:40;4.00;;;2.92;;
17662;SDS011;8950;56.892;15.090;2023-06-14T03:38:07;3.25;;;2.95;;
17662;SDS011;8950;56.892;15.090;2023-06-14T03:40:34;3.85;;;3.20;;
17662;SDS011;8950;56.892;15.090;2023-06-14T03:43:01;3.78;;;3.47;;
17662;SDS011;8950;56.892;15.090;2023-06-14T03:45:27;4.70;;;2.80;;
17662;SDS011;8950;56.892;15.090;2023-06-14T03:47:53;3.22;;;2.80;;
17662;SDS011;8950;56.892;15.090;2023-06-14T03:50:21;3.03;;;2.70;;
17662;SDS011;8950;56.892;15.090;2023-06-14T03:52:48;3.78;;;3.00;;
17662;SDS011;8950;56.892;15.090;2023-06-14T03:55:15;2.95;;;2.75;;
17662;SDS011;8950;56.892;15.090;2023-06-14T03:57:43;4.82;;;3.00;;
17662;SDS011;8950;56.892;15.090;2023-06-14T04:00:10;3.03;;;2.83;;
17662;SDS011;8950;56.892;15.090;2023-06-14T04:02:37;2.70;;;2.50;;
17662;SDS011;8950;56.892;15.090;2023-06-14T04:05:04;4.13;;;2.58;;
17662;SDS011;8950;56.892;15.090;2023-06-14T04:07:33;3.40;;;2.50;;
17662;SDS011;8950;56.892;15.090;2023-06-14T04:10:05;3.88;;;3.15;;
17662;SDS011;8950;56.892;15.090;2023-06-14T04:12:31;6.07;;;3.08;;
17662;SDS011;8950;56.892;15.090;2023-06-14T04:14:59;4.53;;;3.03;;
17662;SDS011;8950;56.892;15.090;2023-06-14T04:17:26;4.70;;;2.80;;
17662;SDS011;8950;56.892;15.090;2023-06-14T04:19:52;7.00;;;3.53;;
17662;SDS011;8950;56.892;15.090;2023-06-14T04:22:18;4.18;;;3.28;;
17662;SDS011;8950;56.892;15.090;2023-06-14T04:24:45;4.57;;;3.05;;
17662;SDS011;8950;56.892;15.090;2023-06-14T04:27:11;4.30;;;2.85;;
17662;SDS011;8950;56.892;15.090;2023-06-14T04:29:38;2.92;;;2.60;;
17662;SDS011;8950;56.892;15.090;2023-06-14T04:32:06;3.97;;;2.88;;
17662;SDS011;8950;56.892;15.090;2023-06-14T04:34:35;4.13;;;2.70;;
17662;SDS011;8950;56.892;15.090;2023-06-14T04:37:02;3.20;;;2.40;;
17662;SDS011;8950;56.892;15.090;2023-06-14T04:39:29;3.72;;;2.53;;
17662;SDS011;8950;56.892;15.090;2023-06-14T04:41:55;2.60;;;2.40;;
17662;SDS011;8950;56.892;15.090;2023-06-14T04:44:25;2.80;;;2.60;;
17662;SDS011;8950;56.892;15.090;2023-06-14T04:46:55;3.72;;;2.88;;
17662;SDS011;8950;56.892;15.090;2023-06-14T04:49:23;3.35;;;2.53;;
17662;SDS011;8950;56.892;15.090;2023-06-14T04:51:50;5.10;;;2.60;;
17662;SDS011;8950;56.892;15.090;2023-06-14T04:54:22;5.75;;;2.65;;
17662;SDS011;8950;56.892;15.090;2023-06-14T04:56:50;6.20;;;2.65;;
17662;SDS011;8950;56.892;15.090;2023-06-14T04:59:16;6.28;;;2.83;;
17662;SDS011;8950;56.892;15.090;2023-06-14T05:01:43;4.55;;;2.55;;
17662;SDS011;8950;56.892;15.090;2023-06-14T05:04:12;3.17;;;2.88;;
17662;SDS011;8950;56.892;15.090;2023-06-14T05:06:40;4.72;;;2.63;;
17662;SDS011;8950;56.892;15.090;2023-06-14T05:09:07;5.75;;;2.90;;
17662;SDS011;8950;56.892;15.090;2023-06-14T05:11:33;2.85;;;2.55;;
17662;SDS011;8950;56.892;15.090;2023-06-14T05:14:00;3.15;;;2.50;;
17662;SDS011;8950;56.892;15.090;2023-06-14T05:16:26;3.83;;;2.63;;
17662;SDS011;8950;56.892;15.090;2023-06-14T05:18:54;4.07;;;2.80;;
17662;SDS011;8950;56.892;15.090;2023-06-14T05:21:20;3.80;;;2.28;;
17662;SDS011;8950;56.892;15.090;2023-06-14T05:23:48;3.58;;;2.45;;
17662;SDS011;8950;56.892;15.090;2023-06-14T05:26:15;4.05;;;2.38;;
17662;SDS011;8950;56.892;15.090;2023-06-14T05:28:42;3.83;;;2.20;;
17662;SDS011;8950;56.892;15.090;2023-06-14T05:31:08;2.85;;;2.65;;
17662;SDS011;8950;56.892;15.090;2023-06-14T05:33:35;4.45;;;2.30;;
17662;SDS011;8950;56.892;15.090;2023-06-14T05:36:01;3.35;;;2.33;;
17662;SDS011;8950;56.892;15.090;2023-06-14T05:38:27;3.30;;;2.60;;
17662;SDS011;8950;56.892;15.090;2023-06-14T05:40:55;4.10;;;2.55;;
17662;SDS011;8950;56.892;15.090;2023-06-14T05:43:22;3.95;;;2.30;;
17662;SDS011;8950;56.892;15.090;2023-06-14T05:45:48;3.72;;;2.45;;
17662;SDS011;8950;56.892;15.090;2023-06-14T05:48:15;2.72;;;2.53;;
17662;SDS011;8950;56.892;15.090;2023-06-14T05:50:41;2.70;;;2.50;;
17662;SDS011;8950;56.892;15.090;2023-06-14T05:53:08;2.80;;;2.60;;
17662;SDS011;8950;56.892;15.090;2023-06-14T05:55:34;2.92;;;2.72;;
17662;SDS011;8950;56.892;15.090;2023-06-14T05:58:03;3.70;;;2.60;;
17662;SDS011;8950;56.892;15.090;2023-06-14T06:00:29;2.78;;;2.45;;
17662;SDS011;8950;56.892;15.090;2023-06-14T06:02:56;4.57;;;2.58;;
17662;SDS011;8950;56.892;15.090;2023-06-14T06:05:23;2.70;;;2.50;;
17662;SDS011;8950;56.892;15.090;2023-06-14T06:07:49;6.47;;;2.90;;
17662;SDS011;8950;56.892;15.090;2023-06-14T06:10:16;2.58;;;2.38;;
17662;SDS011;8950;56.892;15.090;2023-06-14T06:12:42;3.03;;;2.30;;
17662;SDS011;8950;56.892;15.090;2023-06-14T06:15:10;3.97;;;3.00;;
17662;SDS011;8950;56.892;15.090;2023-06-14T06:17:37;2.50;;;2.30;;
17662;SDS011;8950;56.892;15.090;2023-06-14T06:20:04;4.15;;;2.60;;
17662;SDS011;8950;56.892;15.090;2023-06-14T06:22:33;5.32;;;2.67;;
17662;SDS011;8950;56.892;15.090;2023-06-14T06:24:59;3.67;;;2.78;;
17662;SDS011;8950;56.892;15.090;2023-06-14T06:27:26;5.30;;;2.50;;
17662;SDS011;8950;56.892;15.090;2023-06-14T06:29:53;5.50;;;2.55;;
17662;SDS011;8950;56.892;15.090;2023-06-14T06:32:21;2.97;;;2.67;;
17662;SDS011;8950;56.892;15.090;2023-06-14T06:34:47;2.80;;;2.53;;
17662;SDS011;8950;56.892;15.090;2023-06-14T06:37:13;3.53;;;3.22;;
17662;SDS011;8950;56.892;15.090;2023-06-14T06:39:40;3.90;;;2.72;;
17662;SDS011;8950;56.892;15.090;2023-06-14T06:42:06;3.78;;;2.80;;
17662;SDS011;8950;56.892;15.090;2023-06-14T06:44:33;4.30;;;2.92;;
17662;SDS011;8950;56.892;15.090;2023-06-14T06:46:59;2.83;;;2.58;;
17662;SDS011;8950;56.892;15.090;2023-06-14T06:49:27;3.78;;;2.92;;
17662;SDS011;8950;56.892;15.090;2023-06-14T06:51:59;3.03;;;2.67;;
17662;SDS011;8950;56.892;15.090;2023-06-14T06:54:27;3.45;;;2.70;;
17662;SDS011;8950;56.892;15.090;2023-06-14T06:56:53;4.20;;;2.97;;
17662;SDS011;8950;56.892;15.090;2023-06-14T06:59:20;3.28;;;2.97;;
17662;SDS011;8950;56.892;15.090;2023-06-14T07:01:46;4.63;;;2.90;;
17662;SDS011;8950;56.892;15.090;2023-06-14T07:04:12;4.30;;;2.60;;
17662;SDS011;8950;56.892;15.090;2023-06-14T07:06:41;5.63;;;3.00;;
17662;SDS011;8950;56.892;15.090;2023-06-14T07:09:07;3.22;;;2.90;;
17662;SDS011;8950;56.892;15.090;2023-06-14T07:11:38;4.18;;;2.75;;
17662;SDS011;8950;56.892;15.090;2023-06-14T07:14:05;3.65;;;3.35;;
17662;SDS011;8950;56.892;15.090;2023-06-14T07:16:32;2.70;;;2.50;;
17662;SDS011;8950;56.892;15.090;2023-06-14T07:18:58;5.18;;;2.75;;
17662;SDS011;8950;56.892;15.090;2023-06-14T07:21:25;4.35;;;2.92;;
17662;SDS011;8950;56.892;15.090;2023-06-14T07:23:53;3.92;;;2.83;;
17662;SDS011;8950;56.892;15.090;2023-06-14T07:26:20;3.58;;;2.88;;
17662;SDS011;8950;56.892;15.090;2023-06-14T07:28:46;4.47;;;3.13;;
17662;SDS011;8950;56.892;15.090;2023-06-14T07:31:13;4.03;;;3.10;;
17662;SDS011;8950;56.892;15.090;2023-06-14T07:33:40;3.88;;;3.22;;
17662;SDS011;8950;56.892;15.090;2023-06-14T07:36:06;4.47;;;3.03;;
17662;SDS011;8950;56.892;15.090;2023-06-14T07:38:33;3.20;;;2.90;;
17662;SDS011;8950;56.892;15.090;2023-06-14T07:41:01;3.92;;;3.30;;
17662;SDS011;8950;56.892;15.090;2023-06-14T07:43:27;4.75;;;2.97;;
17662;SDS011;8950;56.892;15.090;2023-06-14T07:45:54;4.50;;;3.17;;
17662;SDS011;8950;56.892;15.090;2023-06-14T07:48:22;3.30;;;3.00;;
17662;SDS011;8950;56.892;15.090;2023-06-14T07:50:48;3.63;;;3.33;;
17662;SDS011;8950;56.892;15.090;2023-06-14T07:53:14;3.78;;;3.10;;
17662;SDS011;8950;56.892;15.090;2023-06-14T07:55:41;4.63;;;2.90;;
17662;SDS011;8950;56.892;15.090;2023-06-14T07:58:09;4.97;;;3.03;;
17662;SDS011;8950;56.892;15.090;2023-06-14T08:00:36;6.30;;;3.13;;
17662;SDS011;8950;56.892;15.090;2023-06-14T08:03:03;3.72;;;3.35;;
17662;SDS011;8950;56.892;15.090;2023-06-14T08:05:29;3.63;;;3.28;;
17662;SDS011;8950;56.892;15.090;2023-06-14T08:07:55;5.55;;;3.65;;
17662;SDS011;8950;56.892;15.090;2023-06-14T08:10:22;3.50;;;3.20;;
17662;SDS011;8950;56.892;15.090;2023-06-14T08:12:49;5.40;;;3.80;;
17662;SDS011;8950;56.892;15.090;2023-06-14T08:15:17;6.57;;;3.70;;
17662;SDS011;8950;56.892;15.090;2023-06-14T08:17:44;11.15;;;3.75;;
17662;SDS011;8950;56.892;15.090;2023-06-14T08:20:10;6.03;;;3.50;;
17662;SDS011;8950;56.892;15.090;2023-06-14T08:22:37;3.30;;;3.00;;
17662;SDS011;8950;56.892;15.090;2023-06-14T08:25:04;4.00;;;3.67;;
17662;SDS011;8950;56.892;15.090;2023-06-14T08:27:32;3.78;;;3.35;;
17662;SDS011;8950;56.892;15.090;2023-06-14T08:29:58;4.82;;;3.42;;
17662;SDS011;8950;56.892;15.090;2023-06-14T08:32:26;4.68;;;3.03;;
17662;SDS011;8950;56.892;15.090;2023-06-14T08:34:53;3.30;;;3.00;;
17662;SDS011;8950;56.892;15.090;2023-06-14T08:37:19;6.00;;;3.72;;
17662;SDS011;8950;56.892;15.090;2023-06-14T08:39:46;6.15;;;3.15;;
17662;SDS011;8950;56.892;15.090;2023-06-14T08:42:12;3.90;;;3.60;;
17662;SDS011;8950;56.892;15.090;2023-06-14T08:44:40;3.67;;;3.38;;
17662;SDS011;8950;56.892;15.090;2023-06-14T08:47:07;3.20;;;3.00;;
17662;SDS011;8950;56.892;15.090;2023-06-14T08:49:37;5.10;;;3.78;;
17662;SDS011;8950;56.892;15.090;2023-06-14T08:52:05;3.80;;;3.50;;
17662;SDS011;8950;56.892;15.090;2023-06-14T08:54:32;4.05;;;3.65;;
17662;SDS011;8950;56.892;15.090;2023-06-14T08:57:01;5.13;;;3.60;;
17662;SDS011;8950;56.892;15.090;2023-06-14T08:59:29;5.15;;;3.30;;
17662;SDS011;8950;56.892;15.090;2023-06-14T09:01:56;4.47;;;3.40;;
17662;SDS011;8950;56.892;15.090;2023-06-14T09:04:23;4.18;;;3.78;;
17662;SDS011;8950;56.892;15.090;2023-06-14T09:06:56;3.80;;;3.50;;
17662;SDS011;8950;56.892;15.090;2023-06-14T09:09:23;8.93;;;3.63;;
17662;SDS011;8950;56.892;15.090;2023-06-14T09:11:50;4.78;;;3.53;;
17662;SDS011;8950;56.892;15.090;2023-06-14T09:14:17;4.90;;;3.35;;
17662;SDS011;8950;56.892;15.090;2023-06-14T09:16:44;4.65;;;3.67;;
17662;SDS011;8950;56.892;15.090;2023-06-14T09:19:13;5.00;;;3.45;;
17662;SDS011;8950;56.892;15.090;2023-06-14T09:21:40;4.32;;;3.70;;
17662;SDS011;8950;56.892;15.090;2023-06-14T09:24:12;4.60;;;3.92;;
17662;SDS011;8950;56.892;15.090;2023-06-14T09:26:39;3.92;;;3.58;;
17662;SDS011;8950;56.892;15.090;2023-06-14T09:29:05;4.63;;;4.00;;
17662;SDS011;8950;56.892;15.090;2023-06-14T09:31:32;5.95;;;3.90;;
17662;SDS011;8950;56.892;15.090;2023-06-14T09:33:58;5.38;;;3.72;;
17662;SDS011;8950;56.892;15.090;2023-06-14T09:36:28;4.40;;;3.70;;
17662;SDS011;8950;56.892;15.090;2023-06-14T09:38:55;4.43;;;4.00;;
17662;SDS011;8950;56.892;15.090;2023-06-14T09:41:29;5.03;;;4.28;;
17662;SDS011;8950;56.892;15.090;2023-06-14T09:43:57;4.18;;;3.78;;
17662;SDS011;8950;56.892;15.090;2023-06-14T09:46:26;4.40;;;4.00;;
17662;SDS011;8950;56.892;15.090;2023-06-14T09:48:52;4.32;;;4.00;;
17662;SDS011;8950;56.892;15.090;2023-06-14T09:51:19;4.65;;;3.88;;
17662;SDS011;8950;56.892;15.090;2023-06-14T09:53:48;5.47;;;3.97;;
17662;SDS011;8950;56.892;15.090;2023-06-14T09:56:15;4.57;;;4.18;;
17662;SDS011;8950;56.892;15.090;2023-06-14T09:58:44;5.20;;;4.70;;
17662;SDS011;8950;56.892;15.090;2023-06-14T10:01:11;5.53;;;4.38;;
17662;SDS011;8950;56.892;15.090;2023-06-14T10:03:39;16.02;;;5.72;;
17662;SDS011;8950;56.892;15.090;2023-06-14T10:06:05;4.97;;;4.43;;
17662;SDS011;8950;56.892;15.090;2023-06-14T10:08:34;5.65;;;4.40;;
17662;SDS011;8950;56.892;15.090;2023-06-14T10:11:02;5.20;;;4.45;;
17662;SDS011;8950;56.892;15.090;2023-06-14T10:13:29;4.80;;;4.30;;
17662;SDS011;8950;56.892;15.090;2023-06-14T10:16:00;4.63;;;3.97;;
17662;SDS011;8950;56.892;15.090;2023-06-14T10:18:31;4.25;;;3.88;;
17662;SDS011;8950;56.892;15.090;2023-06-14T10:21:02;5.32;;;4.65;;
17662;SDS011;8950;56.892;15.090;2023-06-14T10:23:33;4.25;;;3.85;;
17662;SDS011;8950;56.892;15.090;2023-06-14T10:26:01;4.40;;;4.00;;
17662;SDS011;8950;56.892;15.090;2023-06-14T10:28:28;4.53;;;4.13;;
17662;SDS011;8950;56.892;15.090;2023-06-14T10:31:02;4.72;;;4.32;;
17662;SDS011;8950;56.892;15.090;2023-06-14T10:33:30;4.28;;;3.88;;
17662;SDS011;8950;56.892;15.090;2023-06-14T10:36:06;7.82;;;4.63;;
17662;SDS011;8950;56.892;15.090;2023-06-14T10:38:33;4.20;;;3.80;;
17662;SDS011;8950;56.892;15.090;2023-06-14T10:41:06;5.10;;;4.30;;
17662;SDS011;8950;56.892;15.090;2023-06-14T10:43:33;5.03;;;4.43;;
17662;SDS011;8950;56.892;15.090;2023-06-14T10:46:16;4.85;;;4.30;;
17662;SDS011;8950;56.892;15.090;2023-06-14T10:48:43;4.93;;;4.53;;
17662;SDS011;8950;56.892;15.090;2023-06-14T10:51:16;4.63;;;4.22;;
17662;SDS011;8950;56.892;15.090;2023-06-14T10:53:45;4.70;;;4.30;;
17662;SDS011;8950;56.892;15.090;2023-06-14T10:56:17;5.00;;;4.35;;
17662;SDS011;8950;56.892;15.090;2023-06-14T10:58:49;5.38;;;4.35;;
17662;SDS011;8950;56.892;15.090;2023-06-14T11:01:18;4.80;;;4.40;;
17662;SDS011;8950;56.892;15.090;2023-06-14T11:03:51;5.35;;;4.30;;
17662;SDS011;8950;56.892;15.090;2023-06-14T11:06:19;4.63;;;4.22;;
17662;SDS011;8950;56.892;15.090;2023-06-14T11:08:55;6.63;;;4.50;;
17662;SDS011;8950;56.892;15.090;2023-06-14T11:11:24;4.95;;;4.55;;
17662;SDS011;8950;56.892;15.090;2023-06-14T11:13:55;5.68;;;4.15;;
17662;SDS011;8950;56.892;15.090;2023-06-14T11:16:25;5.00;;;4.47;;
17662;SDS011;8950;56.892;15.090;2023-06-14T11:18:52;4.65;;;4.22;;
17662;SDS011;8950;56.892;15.090;2023-06-14T11:21:18;5.30;;;4.82;;
17662;SDS011;8950;56.892;15.090;2023-06-14T11:23:48;5.13;;;4.72;;
17662;SDS011;8950;56.892;15.090;2023-06-14T11:26:15;4.20;;;3.80;;
17662;SDS011;8950;56.892;15.090;2023-06-14T11:28:41;4.50;;;4.20;;
17662;SDS011;8950;56.892;15.090;2023-06-14T11:31:08;5.20;;;4.70;;
17662;SDS011;8950;56.892;15.090;2023-06-14T11:33:36;4.47;;;4.07;;
17662;SDS011;8950;56.892;15.090;2023-06-14T11:36:03;7.05;;;4.82;;
17662;SDS011;8950;56.892;15.090;2023-06-14T11:38:30;5.28;;;4.20;;
17662;SDS011;8950;56.892;15.090;2023-06-14T11:40:58;4.45;;;4.05;;
17662;SDS011;8950;56.892;15.090;2023-06-14T11:43:24;5.32;;;4.82;;
17662;SDS011;8950;56.892;15.090;2023-06-14T11:45:51;5.10;;;4.60;;
17662;SDS011;8950;56.892;15.090;2023-06-14T11:48:18;5.03;;;4.63;;
17662;SDS011;8950;56.892;15.090;2023-06-14T11:50:49;5.07;;;4.68;;
17662;SDS011;8950;56.892;15.090;2023-06-14T11:53:15;15.45;;;5.80;;
17662;SDS011;8950;56.892;15.090;2023-06-14T11:55:42;7.78;;;4.50;;
17662;SDS011;8950;56.892;15.090;2023-06-14T11:58:11;4.68;;;4.28;;
17662;SDS011;8950;56.892;15.090;2023-06-14T12:00:37;5.40;;;4.72;;
17662;SDS011;8950;56.892;15.090;2023-06-14T12:03:04;5.15;;;4.50;;
17662;SDS011;8950;56.892;15.090;2023-06-14T12:05:30;5.05;;;4.63;;
17662;SDS011;8950;56.892;15.090;2023-06-14T12:07:59;5.28;;;4.85;;
17662;SDS011;8950;56.892;15.090;2023-06-14T12:10:26;5.50;;;4.43;;
17662;SDS011;8950;56.892;15.090;2023-06-14T12:12:56;5.50;;;4.30;;
17662;SDS011;8950;56.892;15.090;2023-06-14T12:15:23;5.10;;;4.65;;
17662;SDS011;8950;56.892;15.090;2023-06-14T12:17:49;5.70;;;4.55;;
17662;SDS011;8950;56.892;15.090;2023-06-14T12:20:17;4.78;;;4.38;;
17662;SDS011;8950;56.892;15.090;2023-06-14T12:22:47;5.20;;;4.72;;
17662;SDS011;8950;56.892;15.090;2023-06-14T12:25:30;5.60;;;4.72;;
17662;SDS011;8950;56.892;15.090;2023-06-14T12:27:57;4.90;;;4.50;;
17662;SDS011;8950;56.892;15.090;2023-06-14T12:30:23;5.43;;;4.35;;
17662;SDS011;8950;56.892;15.090;2023-06-14T12:32:50;4.88;;;4.45;;
17662;SDS011;8950;56.892;15.090;2023-06-14T12:35:16;4.75;;;4.25;;
17662;SDS011;8950;56.892;15.090;2023-06-14T12:37:43;5.40;;;4.88;;
17662;SDS011;8950;56.892;15.090;2023-06-14T12:40:11;5.00;;;4.60;;
17662;SDS011;8950;56.892;15.090;2023-06-14T12:42:39;5.18;;;4.68;;
17662;SDS011;8950;56.892;15.090;2023-06-14T12:45:06;5.15;;;4.65;;
17662;SDS011;8950;56.892;15.090;2023-06-14T12:47:32;5.25;;;4.75;;
17662;SDS011;8950;56.892;15.090;2023-06-14T12:49:59;5.10;;;4.70;;
17662;SDS011;8950;56.892;15.090;2023-06-14T12:52:26;4.80;;;4.40;;
17662;SDS011;8950;56.892;15.090;2023-06-14T12:54:52;5.97;;;4.78;;
17662;SDS011;8950;56.892;15.090;2023-06-14T12:57:19;6.50;;;5.03;;
17662;SDS011;8950;56.892;15.090;2023-06-14T12:59:46;5.07;;;4.57;;
17662;SDS011;8950;56.892;15.090;2023-06-14T13:02:13;4.90;;;4.40;;
17662;SDS011;8950;56.892;15.090;2023-06-14T13:04:40;5.32;;;4.82;;
17662;SDS011;8950;56.892;15.090;2023-06-14T13:07:06;5.25;;;4.57;;
17662;SDS011;8950;56.892;15.090;2023-06-14T13:09:32;5.20;;;4.70;;
17662;SDS011;8950;56.892;15.090;2023-06-14T13:11:59;5.35;;;4.88;;
17662;SDS011;8950;56.892;15.090;2023-06-14T13:14:26;5.07;;;4.65;;
17662;SDS011;8950;56.892;15.090;2023-06-14T13:16:54;4.95;;;4.55;;
17662;SDS011;8950;56.892;15.090;2023-06-14T13:19:20;5.45;;;4.60;;
17662;SDS011;8950;56.892;15.090;2023-06-14T13:21:47;5.93;;;5.43;;
17662;SDS011;8950;56.892;15.090;2023-06-14T13:24:13;4.95;;;4.45;;
17662;SDS011;8950;56.892;15.090;2023-06-14T13:26:40;6.10;;;4.30;;
17662;SDS011;8950;56.892;15.090;2023-06-14T13:29:06;4.72;;;4.32;;
17662;SDS011;8950;56.892;15.090;2023-06-14T13:31:33;5.15;;;4.65;;
17662;SDS011;8950;56.892;15.090;2023-06-14T13:34:00;4.97;;;4.45;;
17662;SDS011;8950;56.892;15.090;2023-06-14T13:36:27;4.60;;;4.20;;
17662;SDS011;8950;56.892;15.090;2023-06-14T13:38:55;4.78;;;4.32;;
17662;SDS011;8950;56.892;15.090;2023-06-14T13:41:23;5.40;;;4.40;;
17662;SDS011;8950;56.892;15.090;2023-06-14T13:43:55;4.80;;;4.40;;
17662;SDS011;8950;56.892;15.090;2023-06-14T13:46:21;7.18;;;4.65;;
17662;SDS011;8950;56.892;15.090;2023-06-14T13:48:47;4.82;;;4.43;;
17662;SDS011;8950;56.892;15.090;2023-06-14T13:51:15;5.40;;;4.35;;
17662;SDS011;8950;56.892;15.090;2023-06-14T13:56:11;5.07;;;4.57;;
17662;SDS011;8950;56.892;15.090;2023-06-14T13:58:37;5.07;;;4.57;;
17662;SDS011;8950;56.892;15.090;2023-06-14T14:01:04;4.75;;;4.35;;
17662;SDS011;8950;56.892;15.090;2023-06-14T14:03:30;4.55;;;4.13;;
17662;SDS011;8950;56.892;15.090;2023-06-14T14:05:57;5.05;;;4.45;;
17662;SDS011;8950;56.892;15.090;2023-06-14T14:08:24;5.20;;;4.70;;
17662;SDS011;8950;56.892;15.090;2023-06-14T14:10:51;5.35;;;4.40;;
17662;SDS011;8950;56.892;15.090;2023-06-14T14:13:18;4.85;;;4.22;;
17662;SDS011;8950;56.892;15.090;2023-06-14T14:15:44;5.53;;;5.00;;
17662;SDS011;8950;56.892;15.090;2023-06-14T14:18:11;7.68;;;4.63;;
17662;SDS011;8950;56.892;15.090;2023-06-14T14:20:37;7.00;;;5.00;;
17662;SDS011;8950;56.892;15.090;2023-06-14T14:23:04;4.88;;;4.38;;
17662;SDS011;8950;56.892;15.090;2023-06-14T14:25:31;5.13;;;4.63;;
17662;SDS011;8950;56.892;15.090;2023-06-14T14:27:58;4.82;;;4.30;;
17662;SDS011;8950;56.892;15.090;2023-06-14T14:30:24;4.88;;;4.47;;
17662;SDS011;8950;56.892;15.090;2023-06-14T14:32:51;5.18;;;4.68;;
17662;SDS011;8950;56.892;15.090;2023-06-14T14:35:17;4.78;;;4.38;;
17662;SDS011;8950;56.892;15.090;2023-06-14T14:37:44;5.30;;;4.80;;
17662;SDS011;8950;56.892;15.090;2023-06-14T14:40:11;5.20;;;4.70;;
17662;SDS011;8950;56.892;15.090;2023-06-14T14:42:39;5.60;;;5.10;;
17662;SDS011;8950;56.892;15.090;2023-06-14T14:45:06;6.18;;;4.72;;
17662;SDS011;8950;56.892;15.090;2023-06-14T14:47:32;5.50;;;4.47;;
17662;SDS011;8950;56.892;15.090;2023-06-14T14:49:59;5.22;;;4.82;;
17662;SDS011;8950;56.892;15.090;2023-06-14T14:52:25;7.45;;;4.95;;